createdAt,value
2017-08-28T00:00:19.669Z,80.90
2017-08-28T00:02:47.294Z,81.10
2017-08-28T00:05:15.786Z,81.10
2017-08-28T00:07:43.385Z,81.00
2017-08-28T00:10:11.017Z,80.90
2017-08-28T00:12:38.601Z,80.70
2017-08-28T00:15:06.192Z,80.80
2017-08-28T00:17:33.799Z,80.80
2017-08-28T00:20:01.429Z,80.80
2017-08-28T00:22:29.025Z,81.00
2017-08-28T00:24:56.639Z,81.00
2017-08-28T00:27:24.253Z,81.20
2017-08-28T00:29:51.862Z,81.40
2017-08-28T00:32:19.445Z,80.80
2017-08-28T00:34:47.043Z,80.70
2017-08-28T00:37:14.727Z,80.90
2017-08-28T00:39:42.317Z,80.80
2017-08-28T00:42:09.927Z,80.80
2017-08-28T00:44:37.530Z,80.60
2017-08-28T00:47:05.165Z,81.00
2017-08-28T00:49:32.764Z,80.90
2017-08-28T00:52:00.396Z,81.10
2017-08-28T00:54:28.001Z,81.20
2017-08-28T00:56:55.608Z,81.00
2017-08-28T00:59:23.198Z,80.80
2017-08-28T01:01:50.821Z,80.90
2017-08-28T01:04:18.399Z,80.90
2017-08-28T01:06:46.007Z,80.90
2017-08-28T01:09:13.607Z,80.90
2017-08-28T01:11:41.195Z,81.00
2017-08-28T01:14:09.586Z,81.10
2017-08-28T01:16:37.171Z,81.20
2017-08-28T01:19:04.780Z,81.20
2017-08-28T01:21:32.412Z,81.20
2017-08-28T01:24:00.036Z,81.20
2017-08-28T01:26:27.661Z,81.00
2017-08-28T01:28:55.244Z,81.00
2017-08-28T01:31:22.871Z,81.20
2017-08-28T01:33:50.478Z,81.20
2017-08-28T01:36:18.082Z,81.20
2017-08-28T01:38:45.716Z,81.40
2017-08-28T01:41:13.319Z,81.40
2017-08-28T01:43:40.905Z,81.40
2017-08-28T01:46:08.550Z,81.40
2017-08-28T01:48:36.132Z,81.40
2017-08-28T01:51:04.563Z,81.40
2017-08-28T01:53:32.184Z,81.40
2017-08-28T01:55:59.779Z,81.40
2017-08-28T01:58:27.376Z,81.40
2017-08-28T02:00:54.976Z,81.40
2017-08-28T02:03:22.591Z,81.50
2017-08-28T02:05:50.208Z,81.50
2017-08-28T02:08:18.612Z,81.60
2017-08-28T02:10:46.204Z,81.60
2017-08-28T02:13:13.799Z,81.80
2017-08-28T02:15:41.423Z,81.80
2017-08-28T02:18:09.056Z,81.90
2017-08-28T02:20:36.662Z,82.00
2017-08-28T02:23:04.267Z,82.10
2017-08-28T02:25:31.901Z,82.10
2017-08-28T02:27:59.499Z,82.10
2017-08-28T02:30:27.090Z,82.20
2017-08-28T02:32:54.713Z,82.20
2017-08-28T02:35:23.181Z,82.10
2017-08-28T02:37:50.772Z,82.10
2017-08-28T02:40:18.450Z,82.30
2017-08-28T02:42:46.063Z,82.20
2017-08-28T02:45:13.667Z,82.20
2017-08-28T02:47:41.294Z,82.20
2017-08-28T02:50:08.903Z,82.00
2017-08-28T02:52:36.506Z,82.30
2017-08-28T02:55:04.106Z,82.00
2017-08-28T02:57:31.716Z,82.10
2017-08-28T02:59:59.327Z,82.10
2017-08-28T03:02:26.964Z,82.10
2017-08-28T03:04:54.576Z,82.30
2017-08-28T03:07:22.182Z,82.30
2017-08-28T03:09:49.789Z,82.40
2017-08-28T03:12:17.438Z,82.40
2017-08-28T03:14:45.047Z,82.40
2017-08-28T03:17:12.656Z,82.30
2017-08-28T03:19:40.266Z,82.30
2017-08-28T03:22:07.871Z,82.40
2017-08-28T03:24:35.736Z,82.50
2017-08-28T03:27:03.348Z,82.50
2017-08-28T03:29:31.826Z,82.50
2017-08-28T03:31:59.421Z,82.60
2017-08-28T03:34:27.904Z,82.50
2017-08-28T03:36:55.516Z,82.60
2017-08-28T03:39:23.128Z,82.70
2017-08-28T03:41:50.787Z,82.70
2017-08-28T03:44:18.412Z,82.90
2017-08-28T03:46:46.017Z,82.90
2017-08-28T03:49:13.611Z,82.70
2017-08-28T03:51:41.223Z,82.90
2017-08-28T03:54:08.842Z,83.00
2017-08-28T03:56:36.455Z,82.90
2017-08-28T03:59:04.086Z,83.00
2017-08-28T04:01:31.718Z,82.90
2017-08-28T04:03:59.315Z,82.90
2017-08-28T04:06:26.925Z,83.10
2017-08-28T04:08:54.556Z,83.20
2017-08-28T04:11:22.185Z,83.20
2017-08-28T04:13:49.790Z,83.30
2017-08-28T04:16:17.397Z,83.10
2017-08-28T04:18:45.003Z,83.20
2017-08-28T04:21:12.681Z,83.20
2017-08-28T04:23:40.271Z,83.10
2017-08-28T04:26:07.858Z,82.90
2017-08-28T04:28:35.501Z,82.90
2017-08-28T04:31:03.139Z,82.80
2017-08-28T04:33:30.758Z,82.90
2017-08-28T04:35:59.302Z,83.50
2017-08-28T04:38:26.921Z,82.80
2017-08-28T04:40:54.540Z,83.00
2017-08-28T04:43:22.196Z,83.00
2017-08-28T04:45:49.807Z,83.20
2017-08-28T04:48:17.436Z,83.20
2017-08-28T04:50:45.199Z,83.20
2017-08-28T04:53:12.884Z,83.10
2017-08-28T04:55:40.490Z,83.10
2017-08-28T04:58:08.093Z,83.10
2017-08-28T05:00:35.694Z,83.20
2017-08-28T05:03:03.329Z,83.10
2017-08-28T05:05:30.940Z,83.10
2017-08-28T05:07:58.548Z,83.20
2017-08-28T05:10:26.162Z,83.20
2017-08-28T05:12:53.787Z,83.20
2017-08-28T05:15:21.402Z,83.40
2017-08-28T05:17:49.052Z,83.50
2017-08-28T05:20:16.694Z,83.00
2017-08-28T05:22:44.370Z,83.00
2017-08-28T05:25:12.005Z,83.10
2017-08-28T05:27:39.627Z,82.90
2017-08-28T05:30:07.239Z,82.60
2017-08-28T05:32:35.650Z,82.80
2017-08-28T05:35:03.250Z,82.50
2017-08-28T05:37:30.872Z,82.80
2017-08-28T05:39:58.478Z,82.40
2017-08-28T05:42:26.085Z,82.10
2017-08-28T05:44:53.748Z,82.10
2017-08-28T05:47:21.361Z,81.80
2017-08-28T05:49:48.996Z,81.80
2017-08-28T05:52:16.634Z,81.70
2017-08-28T05:54:44.266Z,81.70
2017-08-28T05:57:11.884Z,81.70
2017-08-28T05:59:39.506Z,81.80
2017-08-28T06:02:07.136Z,81.90
2017-08-28T06:04:34.775Z,81.70
2017-08-28T06:07:02.412Z,81.80
2017-08-28T06:09:30.019Z,81.90
2017-08-28T06:11:57.650Z,81.70
2017-08-28T06:14:25.241Z,81.80
2017-08-28T06:16:53.737Z,81.80
2017-08-28T06:19:21.379Z,81.50
2017-08-28T06:21:48.981Z,81.40
2017-08-28T06:24:16.567Z,81.50
2017-08-28T06:26:44.187Z,81.10
2017-08-28T06:29:11.799Z,80.90
2017-08-28T06:31:39.413Z,81.20
2017-08-28T06:34:07.040Z,81.00
2017-08-28T06:36:34.651Z,79.90
2017-08-28T06:39:02.288Z,80.20
2017-08-28T06:41:29.908Z,78.50
2017-08-28T06:43:57.520Z,78.40
2017-08-28T06:46:25.167Z,77.90
2017-08-28T06:48:52.781Z,78.20
2017-08-28T06:51:20.400Z,78.50
2017-08-28T06:53:48.055Z,77.40
2017-08-28T06:56:15.673Z,78.80
2017-08-28T06:58:43.278Z,78.40
2017-08-28T07:01:10.906Z,77.50
2017-08-28T07:03:38.601Z,77.60
2017-08-28T07:06:06.813Z,77.40
2017-08-28T07:08:34.558Z,77.50
2017-08-28T07:11:11.905Z,77.80
2017-08-28T07:13:39.582Z,77.30
2017-08-28T07:16:07.924Z,77.10
2017-08-28T07:18:35.771Z,77.40
2017-08-28T07:21:03.480Z,77.30
2017-08-28T07:23:31.173Z,77.20
2017-08-28T07:25:58.867Z,76.50
2017-08-28T07:28:26.482Z,76.00
2017-08-28T07:30:54.128Z,75.20
2017-08-28T07:33:21.836Z,75.60
2017-08-28T07:35:49.586Z,74.20
2017-08-28T07:38:17.263Z,73.00
2017-08-28T07:40:44.964Z,73.90
2017-08-28T07:43:12.665Z,74.10
2017-08-28T07:45:40.333Z,74.20
2017-08-28T07:48:08.430Z,74.00
2017-08-28T07:50:36.222Z,72.00
2017-08-28T07:53:03.831Z,72.40
2017-08-28T07:55:31.435Z,71.80
2017-08-28T07:57:59.039Z,72.80
2017-08-28T08:00:26.709Z,71.70
2017-08-28T08:02:54.307Z,72.80
2017-08-28T08:05:21.934Z,72.90
2017-08-28T08:07:49.574Z,72.30
2017-08-28T08:10:17.253Z,71.30
2017-08-28T08:12:44.888Z,71.90
2017-08-28T08:15:12.500Z,71.00
2017-08-28T08:17:55.156Z,70.10
2017-08-28T08:20:22.801Z,71.00
2017-08-28T08:22:50.520Z,69.90
2017-08-28T08:25:18.214Z,68.50
2017-08-28T08:27:45.878Z,68.40
2017-08-28T08:30:13.586Z,67.90
2017-08-28T08:32:41.359Z,68.10
2017-08-28T08:35:09.050Z,68.70
2017-08-28T08:37:37.001Z,67.00
2017-08-28T08:40:04.702Z,67.80
2017-08-28T08:42:32.409Z,66.50
2017-08-28T08:48:10.882Z,66.20
2017-08-28T08:50:38.593Z,66.00
2017-08-28T08:53:06.244Z,65.50
2017-08-28T08:55:33.868Z,64.50
2017-08-28T08:58:01.539Z,62.60
2017-08-28T09:00:29.222Z,63.20
2017-08-28T09:02:56.832Z,64.50
2017-08-28T09:05:24.477Z,63.80
2017-08-28T09:07:52.152Z,63.40
2017-08-28T09:10:19.759Z,60.30
2017-08-28T09:12:47.372Z,57.80
2017-08-28T09:15:14.991Z,60.00
2017-08-28T09:17:42.633Z,61.40
2017-08-28T09:20:10.273Z,61.40
2017-08-28T09:22:37.951Z,59.20
2017-08-28T09:25:05.642Z,58.90
2017-08-28T09:27:33.265Z,57.40
2017-08-28T09:30:00.887Z,56.20
2017-08-28T09:32:28.518Z,57.10
2017-08-28T09:34:56.196Z,58.10
2017-08-28T09:37:31.668Z,58.20
2017-08-28T09:40:00.555Z,55.10
2017-08-28T09:45:30.686Z,54.90
2017-08-28T09:48:01.358Z,54.20
2017-08-28T09:50:29.004Z,54.70
2017-08-28T09:52:57.000Z,53.20
2017-08-28T09:55:24.626Z,52.90
2017-08-28T09:57:52.224Z,51.10
2017-08-28T10:00:19.858Z,50.90
2017-08-28T10:02:47.490Z,51.00
2017-08-28T10:05:15.120Z,51.50
2017-08-28T10:07:42.760Z,50.80
2017-08-28T10:10:11.143Z,52.00
2017-08-28T10:12:38.764Z,52.50
2017-08-28T10:15:08.361Z,50.70
2017-08-28T10:17:36.002Z,49.70
2017-08-28T10:22:50.320Z,50.10
2017-08-28T10:25:18.049Z,48.30
2017-08-28T10:27:45.658Z,50.30
2017-08-28T10:30:27.913Z,47.70
2017-08-28T10:32:55.530Z,46.00
2017-08-28T10:35:23.170Z,47.00
2017-08-28T10:37:50.818Z,47.00
2017-08-28T10:40:18.431Z,46.70
2017-08-28T10:42:46.212Z,48.00
2017-08-28T10:45:14.697Z,47.60
2017-08-28T10:47:42.316Z,44.50
2017-08-28T10:50:09.951Z,45.00
2017-08-28T10:52:37.622Z,45.50
2017-08-28T10:55:05.281Z,46.00
2017-08-28T10:57:34.667Z,46.00
2017-08-28T11:00:02.400Z,46.20
2017-08-28T11:02:30.089Z,46.70
2017-08-28T11:04:57.698Z,46.40
2017-08-28T11:07:25.421Z,45.20
2017-08-28T11:09:53.046Z,44.30
2017-08-28T11:12:20.697Z,43.40
2017-08-28T11:14:48.344Z,43.30
2017-08-28T11:17:16.025Z,41.30
2017-08-28T11:19:43.670Z,42.60
2017-08-28T11:22:11.317Z,42.60
2017-08-28T11:24:38.957Z,42.50
2017-08-28T11:27:06.618Z,42.50
2017-08-28T11:29:34.266Z,44.10
2017-08-28T11:32:01.918Z,42.90
2017-08-28T11:34:29.521Z,41.30
2017-08-28T11:36:57.147Z,43.50
2017-08-28T11:39:24.764Z,42.70
2017-08-28T11:41:52.419Z,41.20
2017-08-28T11:44:20.078Z,40.90
2017-08-28T11:46:47.724Z,41.00
2017-08-28T11:49:15.340Z,41.40
2017-08-28T11:51:42.959Z,40.10
2017-08-28T11:54:10.604Z,39.80
2017-08-28T11:56:38.294Z,37.80
2017-08-28T11:59:05.996Z,37.50
2017-08-28T12:01:33.703Z,39.60
2017-08-28T12:04:01.438Z,36.80
2017-08-28T12:06:29.082Z,38.90
2017-08-28T12:08:56.803Z,39.50
2017-08-28T12:11:24.491Z,38.50
2017-08-28T12:13:52.147Z,38.10
2017-08-28T12:16:19.838Z,37.90
2017-08-28T12:18:47.519Z,37.70
2017-08-28T12:21:15.202Z,34.40
2017-08-28T12:29:27.600Z,31.50
2017-08-28T12:31:55.226Z,29.20
2017-08-28T12:34:22.900Z,29.00
2017-08-28T12:36:50.515Z,29.00
2017-08-28T12:39:18.160Z,27.60
2017-08-28T12:41:45.859Z,28.10
2017-08-28T12:44:13.511Z,28.50
2017-08-28T12:46:41.141Z,28.30
2017-08-28T12:49:08.774Z,27.20
2017-08-28T12:51:36.389Z,25.90
2017-08-28T12:54:04.022Z,27.00
2017-08-28T12:56:31.652Z,26.40
2017-08-28T12:58:59.321Z,26.10
2017-08-28T13:01:26.985Z,24.60
2017-08-28T13:03:54.610Z,25.20
2017-08-28T13:06:22.225Z,25.10
2017-08-28T13:08:49.850Z,24.60
2017-08-28T13:11:17.772Z,24.60
2017-08-28T13:13:45.406Z,24.20
2017-08-28T13:16:13.047Z,24.30
2017-08-28T13:18:40.680Z,23.00
2017-08-28T13:21:08.304Z,24.00
2017-08-28T13:23:35.906Z,23.50
2017-08-28T13:26:03.570Z,24.00
2017-08-28T13:28:31.168Z,23.70
2017-08-28T13:30:58.815Z,24.40
2017-08-28T13:33:26.443Z,25.00
2017-08-28T13:35:54.057Z,24.80
2017-08-28T13:38:21.671Z,27.40
2017-08-28T13:40:49.316Z,28.40
2017-08-28T13:43:16.920Z,30.70
2017-08-28T13:45:44.573Z,30.40
2017-08-28T13:48:12.193Z,29.60
2017-08-28T13:50:39.824Z,33.50
2017-08-28T13:53:07.440Z,33.80
2017-08-28T13:55:35.088Z,35.00
2017-08-28T13:58:03.555Z,34.50
2017-08-28T14:00:31.319Z,34.60
2017-08-28T14:08:39.658Z,37.10
2017-08-28T14:11:07.528Z,37.80
2017-08-28T14:13:35.627Z,37.80
2017-08-28T14:16:03.282Z,39.00
2017-08-28T14:18:30.914Z,38.70
2017-08-28T14:20:58.528Z,39.10
2017-08-28T14:23:26.167Z,41.10
2017-08-28T14:25:53.804Z,41.80
2017-08-28T14:28:21.442Z,41.70
2017-08-28T14:30:49.064Z,42.30
2017-08-28T14:33:16.691Z,42.30
2017-08-28T14:35:44.302Z,41.30
2017-08-28T14:38:11.923Z,40.80
2017-08-28T14:40:39.537Z,42.00
2017-08-28T14:43:07.158Z,42.20
2017-08-28T14:45:35.731Z,43.50
2017-08-28T14:48:03.426Z,43.20
2017-08-28T14:50:31.112Z,40.10
2017-08-28T14:52:59.373Z,38.80
2017-08-28T14:55:26.964Z,41.00
2017-08-28T14:57:54.587Z,40.60
2017-08-28T15:00:22.216Z,40.80
2017-08-28T15:02:49.892Z,39.60
2017-08-28T15:05:17.513Z,41.40
2017-08-28T15:07:53.546Z,42.60
2017-08-28T15:10:21.196Z,44.20
2017-08-28T15:12:48.832Z,44.40
2017-08-28T15:15:16.436Z,42.50
2017-08-28T15:17:44.052Z,43.80
2017-08-28T15:20:11.682Z,44.00
2017-08-28T15:22:39.303Z,43.80
2017-08-28T15:25:06.998Z,42.80
2017-08-28T15:27:34.608Z,43.00
2017-08-28T15:30:02.225Z,42.60
2017-08-28T15:32:29.884Z,43.20
2017-08-28T15:34:57.496Z,43.30
2017-08-28T15:37:25.115Z,43.20
2017-08-28T15:39:53.541Z,44.50
2017-08-28T15:42:21.135Z,43.70
2017-08-28T15:44:48.783Z,44.70
2017-08-28T15:47:16.417Z,43.60
2017-08-28T15:49:44.026Z,43.50
2017-08-28T15:52:11.646Z,43.30
2017-08-28T15:54:40.136Z,43.50
2017-08-28T15:57:07.817Z,43.60
2017-08-28T15:59:35.462Z,42.50
2017-08-28T16:02:03.128Z,40.80
2017-08-28T16:04:30.775Z,41.40
2017-08-28T16:06:58.441Z,42.40
2017-08-28T16:09:34.673Z,42.50
2017-08-28T16:12:05.217Z,42.50
2017-08-28T16:14:32.848Z,42.70
2017-08-28T16:17:00.473Z,43.30
2017-08-28T16:19:28.090Z,41.90
2017-08-28T16:21:55.688Z,43.10
2017-08-28T16:24:23.329Z,42.20
2017-08-28T16:26:50.940Z,42.00
2017-08-28T16:29:18.558Z,42.00
2017-08-28T16:31:47.628Z,41.00
2017-08-28T16:34:15.292Z,43.50
2017-08-28T16:36:42.975Z,41.60
2017-08-28T16:39:10.628Z,41.30
2017-08-28T16:41:39.369Z,39.80
2017-08-28T16:44:06.986Z,38.40
2017-08-28T16:46:34.674Z,35.90
2017-08-28T16:49:02.617Z,34.50
2017-08-28T16:51:30.288Z,32.30
2017-08-28T16:53:57.896Z,31.60
2017-08-28T16:56:25.528Z,30.70
2017-08-28T16:58:53.121Z,30.10
2017-08-28T17:01:20.755Z,29.90
2017-08-28T17:03:48.359Z,30.40
2017-08-28T17:06:16.084Z,31.20
2017-08-28T17:08:43.788Z,32.70
2017-08-28T17:11:11.484Z,34.80
2017-08-28T17:13:39.200Z,35.70
2017-08-28T17:16:07.712Z,37.20
2017-08-28T17:18:35.354Z,38.50
2017-08-28T17:21:03.525Z,40.40
2017-08-28T17:26:37.275Z,43.90
2017-08-28T17:29:04.900Z,44.70
2017-08-28T17:31:32.520Z,44.80
2017-08-28T17:36:50.732Z,46.40
2017-08-28T17:45:21.171Z,48.30
2017-08-28T17:47:48.826Z,49.90
2017-08-28T17:50:16.649Z,50.40
2017-08-28T17:52:44.269Z,51.90
2017-08-28T17:55:11.868Z,51.30
2017-08-28T17:57:39.439Z,52.00
2017-08-28T18:00:07.070Z,52.70
2017-08-28T18:02:34.754Z,51.90
2017-08-28T18:05:02.404Z,52.70
2017-08-28T18:07:30.043Z,52.80
2017-08-28T18:09:57.648Z,53.60
2017-08-28T18:12:25.322Z,53.40
2017-08-28T18:14:52.946Z,53.90
2017-08-28T18:17:21.022Z,55.30
2017-08-28T18:19:48.659Z,56.10
2017-08-28T18:22:16.270Z,57.20
2017-08-28T18:24:43.889Z,57.90
2017-08-28T18:27:11.477Z,58.10
2017-08-28T18:29:39.116Z,58.80
2017-08-28T18:32:06.764Z,59.10
2017-08-28T18:34:34.392Z,58.90
2017-08-28T18:37:04.853Z,59.40
2017-08-28T18:39:32.490Z,59.70
2017-08-28T18:42:00.089Z,59.90
2017-08-28T18:44:27.695Z,60.10
2017-08-28T18:49:47.270Z,61.00
2017-08-28T18:52:14.928Z,61.10
2017-08-28T18:54:42.539Z,62.00
2017-08-28T18:57:10.142Z,61.80
2017-08-28T18:59:37.757Z,61.80
2017-08-28T19:02:05.415Z,62.10
2017-08-28T19:04:33.078Z,62.30
2017-08-28T19:07:00.700Z,62.90
2017-08-28T19:09:28.349Z,63.00
2017-08-28T19:11:55.978Z,64.00
2017-08-28T19:14:23.596Z,64.30
2017-08-28T19:16:51.245Z,64.80
2017-08-28T19:19:18.967Z,65.30
2017-08-28T19:21:46.606Z,66.10
2017-08-28T19:24:14.254Z,66.50
2017-08-28T19:26:41.876Z,66.80
2017-08-28T19:29:09.514Z,67.10
2017-08-28T19:31:37.147Z,67.30
2017-08-28T19:34:13.634Z,68.20
2017-08-28T19:36:41.252Z,67.80
2017-08-28T19:39:09.166Z,68.10
2017-08-28T19:41:37.014Z,68.10
2017-08-28T19:44:04.761Z,67.50
2017-08-28T19:46:32.447Z,68.10
2017-08-28T19:49:00.926Z,68.60
2017-08-28T19:51:28.566Z,68.40
2017-08-28T19:53:56.247Z,68.50
2017-08-28T19:56:24.228Z,68.80
2017-08-28T19:58:51.883Z,69.00
2017-08-28T20:01:20.031Z,69.00
2017-08-28T20:03:47.731Z,69.10
2017-08-28T20:06:16.043Z,67.20
2017-08-28T20:08:43.757Z,67.90
2017-08-28T20:11:11.414Z,67.90
2017-08-28T20:13:39.067Z,67.80
2017-08-28T20:16:06.690Z,67.90
2017-08-28T20:18:34.330Z,67.80
2017-08-28T20:21:01.959Z,67.70
2017-08-28T20:23:29.582Z,67.70
2017-08-28T20:25:57.381Z,67.50
2017-08-28T20:28:25.007Z,67.70
2017-08-28T20:30:52.639Z,68.10
2017-08-28T20:33:20.268Z,68.60
2017-08-28T20:35:47.908Z,67.80
2017-08-28T20:38:15.515Z,67.30
2017-08-28T20:40:43.176Z,68.10
2017-08-28T20:43:10.792Z,68.20
2017-08-28T20:45:38.757Z,68.20
2017-08-28T20:48:06.370Z,68.50
2017-08-28T20:50:34.011Z,68.40
2017-08-28T20:53:01.615Z,69.20
2017-08-28T20:55:29.207Z,68.90
2017-08-28T20:57:56.837Z,69.30
2017-08-28T21:00:24.507Z,69.60
2017-08-28T21:02:52.133Z,70.10
2017-08-28T21:05:20.429Z,70.40
2017-08-28T21:07:49.193Z,70.40
2017-08-28T21:10:23.402Z,70.60
2017-08-28T21:12:51.056Z,70.90
2017-08-28T21:15:18.673Z,71.10
2017-08-28T21:17:46.281Z,71.10
2017-08-28T21:20:13.884Z,71.30
2017-08-28T21:22:41.530Z,71.30
2017-08-28T21:25:09.185Z,71.50
2017-08-28T21:27:36.790Z,72.00
2017-08-28T21:30:04.437Z,72.10
2017-08-28T21:32:32.083Z,72.10
2017-08-28T21:35:03.482Z,72.30
2017-08-28T21:37:31.110Z,73.00
2017-08-28T21:39:58.743Z,73.10
2017-08-28T21:42:26.336Z,73.00
2017-08-28T21:44:53.975Z,73.00
2017-08-28T21:47:21.583Z,72.90
2017-08-28T21:49:49.268Z,73.10
2017-08-28T21:52:16.880Z,73.10
2017-08-28T21:54:44.478Z,73.30
2017-08-28T21:57:12.080Z,73.50
2017-08-28T21:59:39.711Z,73.50
2017-08-28T22:02:07.301Z,73.70
2017-08-28T22:04:34.921Z,73.50
2017-08-28T22:07:02.532Z,73.40
2017-08-28T22:09:30.175Z,73.40
2017-08-28T22:11:57.817Z,73.40
2017-08-28T22:14:25.511Z,73.90
2017-08-28T22:16:53.097Z,73.90
2017-08-28T22:19:20.680Z,74.10
2017-08-28T22:21:48.298Z,74.40
2017-08-28T22:24:15.896Z,74.30
2017-08-28T22:26:43.495Z,74.30
2017-08-28T22:29:11.105Z,74.60
2017-08-28T22:31:38.720Z,74.70
2017-08-28T22:34:06.342Z,74.70
2017-08-28T22:36:33.941Z,74.70
2017-08-28T22:39:01.549Z,75.00
2017-08-28T22:41:29.160Z,74.90
2017-08-28T22:43:56.777Z,74.90
2017-08-28T22:46:24.389Z,75.00
2017-08-28T22:48:51.983Z,74.90
2017-08-28T22:51:19.613Z,75.20
2017-08-28T22:53:47.220Z,75.20
2017-08-28T22:56:14.876Z,75.20
2017-08-28T22:58:42.496Z,75.20
2017-08-28T23:01:10.096Z,75.40
2017-08-28T23:03:37.687Z,75.50
2017-08-28T23:06:05.276Z,75.60
2017-08-28T23:08:32.874Z,75.80
2017-08-28T23:11:00.497Z,76.20
2017-08-28T23:13:28.093Z,76.20
2017-08-28T23:15:55.764Z,76.50
2017-08-28T23:18:23.406Z,76.50
2017-08-28T23:20:51.047Z,76.60
2017-08-28T23:23:18.666Z,76.80
2017-08-28T23:25:46.285Z,77.00
2017-08-28T23:31:04.238Z,76.80
2017-08-28T23:33:31.830Z,76.80
2017-08-28T23:35:59.440Z,77.00
2017-08-28T23:38:27.055Z,77.20
2017-08-28T23:40:54.663Z,77.30
2017-08-28T23:43:22.257Z,77.20
2017-08-28T23:45:49.858Z,77.20
2017-08-28T23:48:17.454Z,77.50
2017-08-28T23:50:45.058Z,77.50
2017-08-28T23:53:12.650Z,77.50
2017-08-28T23:55:40.245Z,77.60
2017-08-28T23:58:07.868Z,77.90
